Time;durP1;ratioP1;P1;durP2;ratioP2;P2;SDS_P1;SDS_P2;PMS_P1;PMS_P2;Temp;Humidity;BMP_temperature;BMP_pressure;BME280_temperature;BME280_humidity;BME280_pressure;Samples;Min_cycle;Max_cycle;Signal;HPM_P1;HPM_P2
2022/05/10 00:02:09;;;;;;;12.18;5.08;;;;;;;9.27;66.18;99914.08;4051575;86;21032;-81
2022/05/10 00:08:14;;;;;;;8.28;4.60;;;;;;;9.12;67.01;99916.13;4054173;86;21129;-81
2022/05/10 00:14:16;;;;;;;6.10;4.15;;;;;;;9.30;67.68;99921.58;3979466;88;21005;-81
2022/05/10 00:20:22;;;;;;;9.53;5.22;;;;;;;9.30;67.84;99923.72;4037820;86;21072;-81
2022/05/10 00:26:24;;;;;;;11.18;6.05;;;;;;;9.40;68.33;99922.45;4171252;84;21971;-81
2022/05/10 00:32:29;;;;;;;14.43;7.10;;;;;;;9.19;67.80;99919.87;4162253;84;21029;-81
2022/05/10 00:38:36;;;;;;;11.70;6.00;;;;;;;9.01;67.98;99915.80;4051665;86;21629;-81
2022/05/10 00:44:50;;;;;;;14.55;5.78;;;;;;;8.80;68.23;99915.10;3979457;88;21108;-80
2022/05/10 00:51:00;;;;;;;11.03;6.33;;;;;;;8.56;68.30;99911.01;4080633;85;21045;-80
2022/05/10 00:57:33;;;;;;;12.47;6.05;;;;;;;8.35;68.53;99906.77;4092324;85;21098;-81
2022/05/10 01:03:42;;;;;;;12.98;7.28;;;;;;;8.17;68.92;99900.66;4035761;86;21550;-82
2022/05/10 01:09:48;;;;;;;13.32;6.62;;;;;;;8.08;69.17;99896.44;4172487;83;21056;-80
2022/05/10 01:16:10;;;;;;;11.12;6.25;;;;;;;8.07;69.28;99892.09;4083647;86;21012;-81
2022/05/10 01:22:23;;;;;;;10.40;5.17;;;;;;;7.99;69.83;99891.05;4081139;86;21006;-80
2022/05/10 01:28:32;;;;;;;8.38;5.22;;;;;;;8.03;71.11;99891.98;4085523;84;21133;-80
2022/05/10 01:34:33;;;;;;;10.32;5.70;;;;;;;8.18;71.48;99883.16;4189800;83;21022;-80
2022/05/10 01:40:39;;;;;;;8.78;5.45;;;;;;;8.32;70.57;99880.94;4183967;83;21125;-81
2022/05/10 01:46:41;;;;;;;10.03;6.10;;;;;;;8.32;71.46;99882.87;4175943;83;21499;-82
2022/05/10 01:53:08;;;;;;;9.88;6.17;;;;;;;8.13;71.34;99887.45;4133948;85;21018;-81
2022/05/10 01:59:10;;;;;;;11.43;3.65;;;;;;;8.05;71.95;99885.61;4141369;85;21014;-81
2022/05/10 02:05:16;;;;;;;11.25;5.87;;;;;;;8.05;72.10;99884.84;4150039;84;21081;-81
2022/05/10 02:11:18;;;;;;;15.40;6.57;;;;;;;8.00;71.87;99881.17;4138851;85;20999;-81
2022/05/10 02:17:43;;;;;;;11.65;6.30;;;;;;;7.87;71.75;99877.39;4139722;85;21133;-81
2022/05/10 02:23:56;;;;;;;9.85;6.08;;;;;;;7.68;72.00;99873.80;4141454;84;20991;-81
2022/05/10 02:30:06;;;;;;;10.98;5.58;;;;;;;7.47;72.33;99871.65;4141595;84;21049;-81
2022/05/10 02:36:07;;;;;;;8.80;4.58;;;;;;;7.33;72.51;99860.81;4143985;84;21378;-81
2022/05/10 02:42:13;;;;;;;11.60;5.00;;;;;;;7.40;73.87;99862.42;4134430;84;21118;-81
2022/05/10 02:48:21;;;;;;;9.85;5.10;;;;;;;7.68;74.05;99868.35;4049939;86;21053;-81
2022/05/10 02:54:22;;;;;;;11.18;5.15;;;;;;;7.78;73.77;99869.28;3974004;88;21113;-80
2022/05/10 03:00:25;;;;;;;10.08;5.40;;;;;;;7.66;73.54;99871.16;4096663;85;56228;-82
2022/05/10 03:06:28;;;;;;;12.82;5.58;;;;;;;7.40;73.69;99865.14;4103609;85;21066;-81
2022/05/10 03:12:29;;;;;;;10.13;5.00;;;;;;;7.25;73.97;99859.72;4194343;83;21503;-80
2022/05/10 03:18:32;;;;;;;9.80;4.90;;;;;;;7.12;74.34;99855.91;4220612;83;21161;-81
2022/05/10 03:24:34;;;;;;;8.88;5.05;;;;;;;6.99;74.74;99862.39;4065508;86;21755;-81
2022/05/10 03:30:36;;;;;;;9.73;4.30;;;;;;;7.08;75.45;99854.98;4200868;83;21042;-80
2022/05/10 03:36:40;;;;;;;9.33;5.22;;;;;;;7.18;75.30;99850.49;4224628;83;21022;-81
2022/05/10 03:42:51;;;;;;;9.93;5.60;;;;;;;7.08;74.95;99847.59;4219972;83;21094;-81
2022/05/10 03:48:53;;;;;;;11.12;5.28;;;;;;;6.86;74.80;99843.05;4216269;83;21023;-80
2022/05/10 03:54:54;;;;;;;9.73;5.45;;;;;;;6.67;75.26;99837.23;4196644;82;21031;-81
2022/05/10 04:00:55;;;;;;;10.18;5.75;;;;;;;6.84;75.78;99834.41;4196958;83;21011;-80
2022/05/10 04:06:56;;;;;;;9.95;6.17;;;;;;;6.69;76.01;99837.70;4193157;83;21881;-80
2022/05/10 04:12:59;;;;;;;12.55;6.50;;;;;;;6.81;76.10;99840.51;4199373;83;20999;-80
2022/05/10 04:19:00;;;;;;;12.73;6.33;;;;;;;6.74;75.92;99833.41;4201178;83;21034;-81
2022/05/10 04:25:02;;;;;;;10.00;6.20;;;;;;;6.72;76.77;99841.13;4198181;83;21585;-82
2022/05/10 04:31:04;;;;;;;10.88;6.67;;;;;;;6.76;77.12;99837.97;4202797;83;21067;-81
2022/05/10 04:37:05;;;;;;;13.05;5.67;;;;;;;6.83;77.18;99842.34;4188582;83;22307;-81
2022/05/10 04:43:06;;;;;;;13.48;5.87;;;;;;;7.08;77.94;99840.79;4180457;83;21615;-81
2022/05/10 04:49:11;;;;;;;9.03;5.67;;;;;;;7.45;78.07;99846.69;4180055;82;21101;-80
2022/05/10 04:55:13;;;;;;;12.70;5.85;;;;;;;7.70;77.50;99846.21;4190744;82;21070;-81
2022/05/10 05:01:17;;;;;;;8.40;5.80;;;;;;;8.02;76.87;99839.16;4198762;82;21098;-81
2022/05/10 05:07:18;;;;;;;10.32;5.60;;;;;;;8.25;76.72;99834.91;4196426;82;21538;-82
2022/05/10 05:13:20;;;;;;;11.35;6.28;;;;;;;8.41;76.14;99828.43;4193358;85;21060;-80
2022/05/10 05:19:21;;;;;;;11.90;5.55;;;;;;;8.62;75.41;99825.03;4179378;83;21754;-82
2022/05/10 05:25:23;;;;;;;9.05;5.92;;;;;;;8.85;74.81;99829.44;4187610;83;21034;-82
2022/05/10 05:31:25;;;;;;;9.18;5.58;;;;;;;9.14;74.73;99831.34;4181455;83;21042;-81
2022/05/10 05:37:33;;;;;;;9.03;5.25;;;;;;;9.42;74.55;99831.37;4176282;82;21200;-81
2022/05/10 05:43:34;;;;;;;9.18;5.53;;;;;;;9.72;74.20;99841.39;4185936;82;21051;-81
2022/05/10 05:49:36;;;;;;;11.15;5.55;;;;;;;9.94;73.91;99834.79;4206281;82;21086;-81
2022/05/10 05:55:38;;;;;;;12.25;5.58;;;;;;;10.15;73.68;99842.80;4193495;83;21051;-80
2022/05/10 06:01:40;;;;;;;13.13;6.15;;;;;;;10.40;73.30;99846.38;4195861;83;22034;-81
2022/05/10 06:07:42;;;;;;;8.63;5.20;;;;;;;10.65;72.73;99835.45;4196349;82;21047;-81
2022/05/10 06:13:43;;;;;;;10.20;4.92;;;;;;;10.91;72.54;99839.81;4194871;82;21489;-81
2022/05/10 06:19:46;;;;;;;11.95;4.75;;;;;;;11.23;72.34;99829.53;4197065;82;21106;-81
2022/05/10 06:25:48;;;;;;;7.40;4.62;;;;;;;11.66;72.08;99827.94;4195902;82;21061;-81
2022/05/10 06:31:50;;;;;;;13.15;5.53;;;;;;;12.07;71.89;99831.28;4187738;83;21047;-81
2022/05/10 06:44:13;;;;;;;15.35;5.20;;;;;;;12.78;71.27;99831.09;4201060;83;23287;-81
2022/05/10 06:50:19;;;;;;;12.98;5.12;;;;;;;13.01;70.99;99824.42;4183420;82;21043;-81
2022/05/10 06:56:21;;;;;;;11.70;4.65;;;;;;;13.39;70.33;99831.62;4184247;83;22056;-82
2022/05/10 07:02:24;;;;;;;16.48;5.15;;;;;;;13.66;69.71;99827.04;4192269;82;21059;-81
2022/05/10 07:08:26;;;;;;;9.85;5.17;;;;;;;13.92;69.20;99828.31;4191628;83;21062;-80
2022/05/10 07:14:27;;;;;;;16.35;5.17;;;;;;;14.17;68.63;99827.98;4199501;83;21079;-81
2022/05/10 07:20:28;;;;;;;12.53;4.42;;;;;;;14.44;67.74;99823.75;4205407;82;21061;-82
2022/05/10 07:26:30;;;;;;;12.35;5.03;;;;;;;14.74;67.42;99829.88;4205642;83;21027;-81
2022/05/10 07:32:31;;;;;;;12.13;5.20;;;;;;;15.23;65.78;99828.84;4197500;83;21042;-81
2022/05/10 07:38:32;;;;;;;8.40;4.72;;;;;;;15.65;65.86;99821.59;4188047;82;21027;-81
2022/05/10 07:44:34;;;;;;;7.62;4.65;;;;;;;16.37;65.33;99821.36;4196576;83;21027;-82
2022/05/10 07:50:37;;;;;;;9.10;4.10;;;;;;;16.98;64.41;99817.41;4191361;82;21051;-82
2022/05/10 07:56:41;;;;;;;7.33;3.98;;;;;;;17.59;63.24;99814.11;4204400;83;21034;-82
2022/05/10 08:02:44;;;;;;;11.55;4.03;;;;;;;18.24;61.64;99810.59;4194665;83;21035;-82
2022/05/10 08:08:45;;;;;;;7.25;3.72;;;;;;;18.54;60.83;99812.19;4190284;83;21130;-81
2022/05/10 08:14:47;;;;;;;11.88;4.17;;;;;;;18.72;60.28;99804.48;4189400;83;21083;-82
2022/05/10 08:20:51;;;;;;;9.45;3.72;;;;;;;18.86;59.38;99805.75;4189892;83;21015;-82
2022/05/10 08:26:52;;;;;;;6.65;3.70;;;;;;;19.01;58.24;99810.56;4171356;83;21051;-81
2022/05/10 08:32:54;;;;;;;9.25;3.70;;;;;;;19.14;57.50;99803.31;4195614;82;21468;-82
2022/05/10 08:38:55;;;;;;;6.90;2.90;;;;;;;19.22;56.83;99797.25;4192532;82;21789;-82
2022/05/10 08:45:02;;;;;;;6.28;3.00;;;;;;;19.27;55.77;99783.52;4195288;83;21023;-81
2022/05/10 08:51:07;;;;;;;5.08;2.40;;;;;;;19.19;53.50;99780.04;4191392;83;21015;-81
2022/05/10 08:57:48;;;;;;;3.60;2.30;;;;;;;19.32;52.10;99776.16;4193224;83;21953;-81
2022/05/10 09:04:20;;;;;;;5.65;2.67;;;;;;;19.39;52.70;99766.34;4198162;82;21124;-81
2022/05/10 09:10:53;;;;;;;5.50;2.25;;;;;;;19.69;51.36;99769.13;4181337;83;21016;-81
2022/05/10 09:16:55;;;;;;;3.83;2.42;;;;;;;20.04;51.11;99759.72;4190706;82;21007;-81
2022/05/10 09:23:28;;;;;;;4.03;2.12;;;;;;;20.39;49.03;99755.59;4182010;83;21067;-80
2022/05/10 09:29:41;;;;;;;3.72;1.90;;;;;;;20.98;48.63;99751.61;4193538;83;21573;-80
2022/05/10 09:35:53;;;;;;;7.05;2.10;;;;;;;21.73;47.26;99738.52;4194035;83;21823;-82
2022/05/10 09:41:55;;;;;;;4.17;2.12;;;;;;;22.35;45.68;99737.50;4192251;83;21593;-81
2022/05/10 09:48:02;;;;;;;6.12;2.20;;;;;;;22.65;44.34;99723.98;4192080;82;21034;-81
2022/05/10 09:54:21;;;;;;;5.55;2.27;;;;;;;23.56;43.55;99717.84;4234157;82;21957;-81
2022/05/10 10:00:56;;;;;;;4.60;2.12;;;;;;;23.56;43.55;99717.84;4239328;81;21096;-80
2022/05/10 10:07:20;;;;;;;4.42;2.12;;;;;;;24.10;43.23;99708.01;4243607;82;21062;-82
2022/05/10 10:13:36;;;;;;;4.28;2.08;;;;;;;24.28;41.82;99711.00;4241923;82;21763;-81
2022/05/10 10:19:43;;;;;;;4.72;2.30;;;;;;;24.45;41.37;99704.81;4249116;81;21026;-80
2022/05/10 10:25:48;;;;;;;4.42;2.15;;;;;;;24.46;40.35;99696.57;4234260;82;21074;-80
2022/05/10 10:31:57;;;;;;;4.00;2.05;;;;;;;24.27;38.46;99689.86;4255852;81;21081;-80
2022/05/10 10:38:15;;;;;;;4.45;2.20;;;;;;;24.59;39.21;99681.14;4244410;82;21018;-81
2022/05/10 10:44:27;;;;;;;4.77;2.13;;;;;;;24.92;38.34;99678.19;4222238;82;21617;-81
2022/05/10 10:50:32;;;;;;;3.62;2.05;;;;;;;24.84;36.02;99671.92;4235986;82;21539;-81
2022/05/10 10:56:54;;;;;;;4.70;2.00;;;;;;;25.04;36.23;99648.56;4243803;82;21081;-81
2022/05/10 11:03:13;;;;;;;3.70;1.80;;;;;;;25.44;35.74;99642.45;4239934;82;21124;-81
2022/05/10 11:09:38;;;;;;;4.65;2.10;;;;;;;25.50;34.66;99637.19;4239414;81;21865;-81
2022/05/10 11:15:57;;;;;;;3.90;2.02;;;;;;;25.72;33.56;99630.89;4242727;81;21522;-82
2022/05/10 11:22:39;;;;;;;3.20;1.80;;;;;;;26.09;34.77;99629.02;4243542;82;21688;-81
2022/05/10 11:28:58;;;;;;;4.17;1.92;;;;;;;26.63;34.40;99620.64;4107820;85;21100;-82
2022/05/10 11:35:33;;;;;;;6.47;1.77;;;;;;;26.75;32.61;99615.51;4238814;81;21038;-81
2022/05/10 11:41:59;;;;;;;4.65;1.70;;;;;;;26.39;26.95;99604.89;4062199;83;21004;-81
2022/05/10 11:48:36;;;;;;;2.75;1.62;;;;;;;25.84;30.54;99585.77;4233155;83;21054;-82
2022/05/10 11:55:14;;;;;;;2.02;1.45;;;;;;;26.42;30.99;99585.71;4213314;83;21054;-82
2022/05/10 12:01:42;;;;;;;4.20;1.85;;;;;;;26.28;29.07;99577.91;4223413;83;21086;-82
2022/05/10 12:07:58;;;;;;;4.15;1.65;;;;;;;25.04;26.47;99572.33;4227642;81;21031;-81
2022/05/10 12:27:12;;;;;;;4.50;1.80;;;;;;;24.38;28.99;99554.58;4225616;83;21538;-82
2022/05/10 12:33:36;;;;;;;3.58;1.92;;;;;;;23.88;29.01;99545.69;4218599;83;21054;-81
2022/05/10 12:39:38;;;;;;;4.10;2.02;;;;;;;23.66;29.69;99543.47;4223349;83;21050;-83
2022/05/10 12:46:12;;;;;;;7.12;1.77;;;;;;;23.62;29.35;99535.01;4224128;83;22280;-81
2022/05/10 12:52:24;;;;;;;4.47;2.00;;;;;;;23.31;29.51;99534.83;4198905;83;21066;-80
2022/05/10 12:58:30;;;;;;;5.03;2.12;;;;;;;23.03;28.75;99526.70;4220990;83;22080;-79
2022/05/10 13:04:40;;;;;;;4.10;1.92;;;;;;;22.80;29.22;99506.05;4228570;81;21110;-80
2022/05/10 13:10:42;;;;;;;5.35;1.77;;;;;;;22.94;29.59;99503.47;4228046;83;21078;-82
2022/05/10 13:16:51;;;;;;;11.08;4.35;;;;;;;23.07;29.64;99498.05;4234788;83;21070;-82
2022/05/10 13:22:58;;;;;;;3.98;1.70;;;;;;;23.03;29.40;99489.01;4226764;81;21063;-81
2022/05/10 13:29:01;;;;;;;4.45;1.82;;;;;;;23.11;29.84;99474.20;4223573;83;21022;-82
2022/05/10 13:35:17;;;;;;;3.67;1.50;;;;;;;23.23;29.90;99463.62;4272782;83;21015;-82
2022/05/10 13:41:30;;;;;;;3.37;1.60;;;;;;;23.35;30.00;99455.87;4218481;81;21070;-82
2022/05/10 13:47:33;;;;;;;3.70;2.08;;;;;;;23.69;30.12;99448.14;4223555;83;21074;-81
2022/05/10 13:53:36;;;;;;;3.62;1.72;;;;;;;23.71;29.38;99453.44;4197259;83;21114;-81
2022/05/10 13:59:37;;;;;;;6.12;1.70;;;;;;;23.61;29.50;99448.22;4178247;82;21091;-81
2022/05/10 14:05:39;;;;;;;4.55;2.00;;;;;;;23.66;28.73;99442.85;4178331;84;21052;-81
2022/05/10 14:11:43;;;;;;;5.08;2.00;;;;;;;23.64;28.35;99430.55;4154506;84;21579;-82
2022/05/10 14:18:01;;;;;;;7.12;2.35;;;;;;;23.21;28.62;99408.83;4182859;84;21066;-81
2022/05/10 14:24:05;;;;;;;2.85;1.72;;;;;;;23.47;29.04;99406.80;4183238;82;21047;-81
2022/05/10 14:30:23;;;;;;;6.00;2.12;;;;;;;23.35;29.13;99395.05;4174299;82;21103;-82
2022/05/10 14:36:32;;;;;;;2.62;1.82;;;;;;;23.31;29.02;99392.98;4172268;84;21075;-81
2022/05/10 14:42:37;;;;;;;5.33;2.08;;;;;;;23.12;29.10;99367.64;4177518;84;21043;-82
2022/05/10 14:48:45;;;;;;;3.33;1.92;;;;;;;23.24;28.86;99382.78;4174610;83;21019;-81
2022/05/10 14:54:44;;;;;;;4.50;1.67;;;;;;;23.10;28.77;99373.48;4216411;83;21034;-83
2022/05/10 15:01:01;;;;;;;2.83;1.52;;;;;;;23.11;28.93;99363.91;4223920;83;22004;-82
2022/05/10 15:07:04;;;;;;;4.12;1.67;;;;;;;23.17;29.79;99358.70;4219891;83;21011;-83
2022/05/10 15:13:08;;;;;;;5.00;1.90;;;;;;;22.95;29.14;99352.87;4222195;82;21086;-81
2022/05/10 15:19:09;;;;;;;3.87;1.80;;;;;;;22.54;29.09;99345.42;4221827;83;21990;-80
2022/05/10 15:25:11;;;;;;;5.90;1.90;;;;;;;22.30;29.39;99339.97;4223447;83;20994;-82
2022/05/10 15:31:13;;;;;;;4.53;1.70;;;;;;;22.12;29.87;99337.55;4220271;83;21443;-81
2022/05/10 15:37:19;;;;;;;4.53;1.87;;;;;;;22.00;30.18;99328.56;4227524;83;21034;-82
2022/05/10 15:43:21;;;;;;;6.97;1.90;;;;;;;21.89;30.08;99321.13;4225346;81;21039;-82
2022/05/10 15:49:24;;;;;;;3.85;1.77;;;;;;;21.70;29.70;99315.87;4227037;81;20995;-82
2022/05/10 15:55:26;;;;;;;7.62;2.52;;;;;;;21.55;29.77;99316.88;4176057;83;21975;-81
2022/05/10 16:01:27;;;;;;;3.90;2.00;;;;;;;21.40;29.83;99308.75;4188072;84;21035;-83
2022/05/10 16:07:30;;;;;;;4.62;1.87;;;;;;;21.29;29.76;99304.09;4186244;84;20991;-80
2022/05/10 16:13:32;;;;;;;5.35;2.00;;;;;;;21.18;29.64;99305.58;4184854;84;21003;-83
2022/05/10 16:19:33;;;;;;;7.00;2.17;;;;;;;21.00;30.03;99292.13;4170103;84;21100;-80
2022/05/10 16:25:34;;;;;;;5.92;1.65;;;;;;;20.85;30.07;99292.30;4159107;84;20985;-81
2022/05/10 16:31:37;;;;;;;6.90;1.80;;;;;;;20.75;30.07;99292.58;4164296;84;21130;-80
2022/05/10 16:37:39;;;;;;;7.10;1.95;;;;;;;20.64;30.09;99285.87;4175956;82;21027;-80
2022/05/10 16:43:40;;;;;;;6.30;2.08;;;;;;;20.55;30.23;99291.89;4191862;84;21083;-81
2022/05/10 16:49:42;;;;;;;9.38;6.28;;;;;;;20.45;30.46;99286.76;4189310;82;21158;-80
2022/05/10 16:55:43;;;;;;;12.28;6.95;;;;;;;20.36;30.65;99285.80;4231976;83;21045;-80
2022/05/10 17:01:45;;;;;;;5.50;3.40;;;;;;;20.24;30.91;99290.02;4234859;81;21026;-81
2022/05/10 17:07:46;;;;;;;5.47;2.02;;;;;;;20.06;31.33;99286.22;4234772;83;21045;-81
2022/05/10 17:13:48;;;;;;;7.40;1.90;;;;;;;19.94;31.48;99291.06;4239007;81;21010;-80
2022/05/10 17:19:49;;;;;;;6.58;2.00;;;;;;;19.78;31.68;99282.67;4227843;81;20959;-80
2022/05/10 17:25:52;;;;;;;4.42;2.12;;;;;;;19.62;31.75;99277.06;4233404;83;21052;-80
2022/05/10 17:31:54;;;;;;;5.50;2.20;;;;;;;19.50;31.95;99274.94;4225016;81;21043;-81
2022/05/10 17:37:57;;;;;;;12.23;2.72;;;;;;;19.36;32.12;99274.43;4235852;83;21947;-82
2022/05/10 17:43:59;;;;;;;9.95;3.40;;;;;;;19.19;32.37;99276.32;4225062;83;21026;-81
2022/05/10 17:50:02;;;;;;;8.10;3.58;;;;;;;18.99;32.63;99271.36;4224146;83;21079;-80
2022/05/10 17:56:06;;;;;;;8.55;4.10;;;;;;;18.78;32.89;99271.72;4230564;83;21090;-83
2022/05/10 18:02:08;;;;;;;12.37;4.17;;;;;;;18.57;33.20;99270.09;4218904;83;21054;-80
2022/05/10 18:08:09;;;;;;;8.65;4.22;;;;;;;18.28;33.80;99274.50;4228262;81;21511;-80
2022/05/10 18:14:12;;;;;;;10.40;3.50;;;;;;;17.92;34.34;99280.97;4228108;83;21070;-80
2022/05/10 18:20:15;;;;;;;10.05;3.27;;;;;;;17.58;35.02;99280.23;4231605;83;20999;-80
2022/05/10 18:26:18;;;;;;;9.55;3.55;;;;;;;17.23;35.52;99275.11;4223385;83;21030;-79
2022/05/10 18:32:20;;;;;;;8.60;4.03;;;;;;;16.87;36.14;99273.28;4229033;83;20999;-80
2022/05/10 18:38:23;;;;;;;17.02;5.55;;;;;;;16.61;36.78;99271.97;4226567;83;21018;-81
2022/05/10 18:44:27;;;;;;;11.97;5.95;;;;;;;16.40;37.24;99277.63;4219235;83;20987;-80
2022/05/10 18:50:30;;;;;;;12.00;6.42;;;;;;;16.21;37.70;99276.77;4224864;83;21014;-80
2022/05/10 18:56:32;;;;;;;10.60;6.00;;;;;;;16.04;38.26;99275.50;4234568;83;21019;-80
2022/05/10 19:02:34;;;;;;;11.60;5.47;;;;;;;15.83;38.58;99285.31;4218372;82;22029;-80
2022/05/10 19:08:38;;;;;;;10.03;4.45;;;;;;;15.72;38.92;99280.44;4217993;83;21050;-80
2022/05/10 19:14:41;;;;;;;14.78;9.05;;;;;;;15.66;39.13;99278.09;4224673;81;21054;-80
2022/05/10 19:20:43;;;;;;;34.63;19.80;;;;;;;15.54;39.28;99277.17;4217062;82;20999;-79
2022/05/10 19:26:46;;;;;;;29.20;13.38;;;;;;;15.44;39.72;99274.45;4227610;83;21034;-81
2022/05/10 19:32:49;;;;;;;23.27;11.78;;;;;;;15.34;40.51;99278.00;4229403;83;20988;-81
2022/05/10 19:38:51;;;;;;;112.03;47.88;;;;;;;15.05;40.79;99278.67;4222044;83;21007;-81
2022/05/10 19:44:53;;;;;;;38.60;19.45;;;;;;;14.72;41.02;99281.10;4228934;83;20975;-79
2022/05/10 19:50:55;;;;;;;21.70;10.55;;;;;;;14.45;41.82;99281.30;4230118;81;21485;-81
2022/05/10 19:56:58;;;;;;;33.83;18.42;;;;;;;14.28;42.67;99290.34;4224144;83;21565;-81
2022/05/10 20:09:21;;;;;;;25.82;11.75;;;;;;;13.96;44.90;99286.93;4235387;83;21927;-80
2022/05/10 20:15:24;;;;;;;30.92;13.98;;;;;;;13.80;45.58;99290.61;4232470;81;21090;-80
2022/05/10 20:21:26;;;;;;;26.20;13.93;;;;;;;13.58;46.56;99291.72;4229960;81;21881;-80
2022/05/10 20:27:28;;;;;;;29.23;13.85;;;;;;;13.44;47.42;99281.23;4220698;83;21022;-79
2022/05/10 20:33:30;;;;;;;39.95;20.90;;;;;;;13.13;48.11;99289.55;4225430;83;21912;-80
2022/05/10 20:39:32;;;;;;;47.48;22.65;;;;;;;12.88;48.76;99289.16;4229265;83;21118;-79
2022/05/10 20:45:36;;;;;;;108.32;50.38;;;;;;;12.64;49.04;99287.81;4238459;83;21459;-80
2022/05/10 20:51:37;;;;;;;60.80;28.57;;;;;;;12.46;49.34;99282.78;4224151;81;20995;-79
2022/05/10 20:57:39;;;;;;;49.42;19.57;;;;;;;12.23;50.10;99282.20;4222746;81;21117;-80
2022/05/10 21:03:43;;;;;;;45.73;19.60;;;;;;;12.00;50.91;99287.85;4226635;83;21050;-80
2022/05/10 21:09:44;;;;;;;41.28;18.85;;;;;;;11.96;51.35;99293.90;4217178;83;21062;-81
2022/05/10 21:15:47;;;;;;;26.40;13.20;;;;;;;11.72;51.92;99285.39;4213198;83;21549;-81
2022/05/10 21:22:06;;;;;;;28.92;12.58;;;;;;;11.47;52.84;99289.19;4205975;83;21081;-80
2022/05/10 21:28:27;;;;;;;21.05;11.40;;;;;;;11.42;53.46;99284.03;4231556;83;21554;-79
2022/05/10 21:34:29;;;;;;;24.32;12.55;;;;;;;11.23;54.35;99277.93;4229106;83;22223;-81
2022/05/10 21:40:33;;;;;;;24.70;12.65;;;;;;;11.08;54.63;99275.00;4221143;81;21023;-79
2022/05/10 21:46:36;;;;;;;23.27;12.20;;;;;;;10.79;55.31;99279.09;4221519;83;21216;-79
2022/05/10 21:52:38;;;;;;;19.75;11.30;;;;;;;10.68;56.26;99276.77;4205335;83;21082;-80
2022/05/10 21:58:39;;;;;;;26.15;11.43;;;;;;;10.51;56.61;99275.89;4228800;83;21171;-80
2022/05/10 22:04:41;;;;;;;20.43;11.57;;;;;;;10.39;57.15;99277.47;4241783;83;21030;-80
2022/05/10 22:10:43;;;;;;;21.75;11.35;;;;;;;10.24;57.90;99274.30;4219664;81;21074;-79
2022/05/10 22:16:44;;;;;;;23.70;12.05;;;;;;;10.22;58.84;99274.66;4226032;83;21180;-80
2022/05/10 22:22:46;;;;;;;39.63;18.67;;;;;;;10.11;59.03;99272.89;4221036;83;21112;-80
2022/05/10 22:28:47;;;;;;;23.02;12.15;;;;;;;9.96;59.32;99266.95;4225840;83;21086;-79
2022/05/10 22:34:49;;;;;;;19.30;10.30;;;;;;;9.83;60.27;99255.95;4227270;81;21074;-79
2022/05/10 22:40:52;;;;;;;18.92;11.28;;;;;;;9.79;61.04;99254.52;4232261;81;21086;-80
2022/05/10 22:46:54;;;;;;;22.82;12.13;;;;;;;9.72;61.15;99251.67;4159559;84;21051;-79
2022/05/10 22:52:55;;;;;;;17.35;11.00;;;;;;;9.59;61.12;99248.88;4078745;85;21594;-79
2022/05/10 22:58:56;;;;;;;24.52;12.88;;;;;;;9.40;62.22;99242.86;4175206;83;21027;-80
2022/05/10 23:04:58;;;;;;;19.52;11.48;;;;;;;9.39;62.44;99237.20;4147551;84;21055;-79
2022/05/10 23:10:59;;;;;;;23.07;13.88;;;;;;;9.38;63.35;99235.59;4179762;84;21038;-79
2022/05/10 23:17:04;;;;;;;21.25;12.73;;;;;;;9.26;63.66;99228.12;4177764;84;21519;-79
2022/05/10 23:23:06;;;;;;;30.08;14.75;;;;;;;9.36;64.51;99233.79;4177313;84;21090;-79
2022/05/10 23:29:08;;;;;;;42.73;19.95;;;;;;;9.35;64.24;99233.59;4187416;82;21118;-80
2022/05/10 23:35:11;;;;;;;39.58;18.05;;;;;;;9.29;64.53;99227.41;4180847;83;21063;-79
2022/05/10 23:41:13;;;;;;;26.02;15.53;;;;;;;9.13;64.96;99223.98;4180492;84;21059;-79
2022/05/10 23:47:14;;;;;;;22.00;13.25;;;;;;;8.97;65.03;99221.88;4183162;84;21019;-79
2022/05/10 23:53:20;;;;;;;24.40;12.63;;;;;;;8.85;66.06;99213.81;4181385;83;21103;-79
2022/05/10 23:59:22;;;;;;;26.85;15.08;;;;;;;8.87;66.31;99218.34;4181411;84;21067;-79
